createdAt,value
2018-05-23T00:00:40.017Z,0
2018-05-23T00:01:49.702Z,0
2018-05-23T00:02:59.137Z,0
2018-05-23T00:04:08.831Z,0
2018-05-23T00:05:18.238Z,0
2018-05-23T00:06:27.403Z,0
2018-05-23T00:07:36.828Z,0
2018-05-23T00:08:46.490Z,0
2018-05-23T00:09:55.672Z,0
2018-05-23T00:11:04.574Z,0
2018-05-23T00:12:14.288Z,0
2018-05-23T00:13:23.720Z,0
2018-05-23T00:14:32.880Z,0
2018-05-23T00:15:41.530Z,0
2018-05-23T00:16:51.051Z,0
2018-05-23T00:18:00.761Z,0
2018-05-23T00:19:09.951Z,0
2018-05-23T00:20:19.630Z,0
2018-05-23T00:21:29.326Z,0
2018-05-23T00:22:38.765Z,0
2018-05-23T00:23:47.926Z,0
2018-05-23T00:24:56.832Z,0
2018-05-23T00:26:06.298Z,0
2018-05-23T00:27:15.733Z,0
2018-05-23T00:28:25.672Z,0
2018-05-23T00:29:34.583Z,0
2018-05-23T00:30:44.278Z,0
2018-05-23T00:31:53.954Z,0
2018-05-23T00:33:03.114Z,0
2018-05-23T00:34:12.536Z,0
2018-05-23T00:35:21.441Z,0
2018-05-23T00:36:30.859Z,0
2018-05-23T00:37:40.269Z,0
2018-05-23T00:38:49.685Z,0
2018-05-23T00:39:59.627Z,0
2018-05-23T00:41:09.041Z,0
2018-05-23T00:42:18.723Z,0
2018-05-23T00:43:28.415Z,0
2018-05-23T00:44:37.580Z,0
2018-05-23T00:45:47.917Z,0
2018-05-23T00:46:57.107Z,0
2018-05-23T00:48:06.275Z,0
2018-05-23T00:49:15.697Z,0
2018-05-23T00:50:25.784Z,0
2018-05-23T00:51:35.479Z,0
2018-05-23T00:52:45.259Z,0
2018-05-23T00:53:54.685Z,0
2018-05-23T00:55:04.118Z,0
2018-05-23T00:56:13.620Z,0
2018-05-23T00:57:23.296Z,0
2018-05-23T00:58:32.475Z,0
2018-05-23T00:59:41.372Z,0
2018-05-23T01:00:50.780Z,0
2018-05-23T01:02:00.212Z,0
2018-05-23T01:03:09.406Z,0
2018-05-23T01:04:18.812Z,0
2018-05-23T01:05:27.702Z,0
2018-05-23T01:06:37.646Z,0
2018-05-23T01:07:47.360Z,0
2018-05-23T01:08:56.961Z,0
2018-05-23T01:10:06.128Z,0
2018-05-23T01:11:15.541Z,0
2018-05-23T01:12:24.993Z,0
2018-05-23T01:13:34.663Z,0
2018-05-23T01:14:43.826Z,0
2018-05-23T01:15:53.015Z,0
2018-05-23T01:17:02.441Z,0
2018-05-23T01:18:11.913Z,0
2018-05-23T01:19:20.810Z,0
2018-05-23T01:20:30.243Z,0
2018-05-23T01:21:39.404Z,0
2018-05-23T01:22:48.837Z,0
2018-05-23T01:23:58.012Z,0
2018-05-23T01:25:07.166Z,0
2018-05-23T01:26:16.331Z,0
2018-05-23T01:27:25.550Z,0
2018-05-23T01:28:34.986Z,0
2018-05-23T01:29:44.692Z,0
2018-05-23T01:30:54.133Z,0
2018-05-23T01:32:03.550Z,0
2018-05-23T01:33:12.971Z,0
2018-05-23T01:34:22.469Z,0
2018-05-23T01:35:31.681Z,0
2018-05-23T01:36:41.184Z,0
2018-05-23T01:37:50.609Z,0
2018-05-23T01:39:00.041Z,0
2018-05-23T01:40:09.473Z,0
2018-05-23T01:41:19.410Z,0
2018-05-23T01:42:28.599Z,0
2018-05-23T01:43:38.082Z,0
2018-05-23T01:44:46.999Z,0
2018-05-23T01:45:56.413Z,0
2018-05-23T01:47:05.590Z,0
2018-05-23T01:48:14.759Z,0
2018-05-23T01:49:24.192Z,0
2018-05-23T01:50:33.370Z,0
2018-05-23T01:51:42.531Z,0
2018-05-23T01:52:51.968Z,0
2018-05-23T01:54:01.661Z,0
2018-05-23T01:55:11.089Z,0
2018-05-23T01:56:20.252Z,0
2018-05-23T01:57:29.662Z,0
2018-05-23T01:58:38.902Z,0
2018-05-23T01:59:48.352Z,0
2018-05-23T02:00:57.535Z,0
2018-05-23T02:02:07.569Z,0
2018-05-23T02:03:17.274Z,0
2018-05-23T02:04:26.699Z,0
2018-05-23T02:05:36.398Z,0
2018-05-23T02:06:45.583Z,0
2018-05-23T02:07:55.038Z,0
2018-05-23T02:09:04.470Z,0
2018-05-23T02:10:14.146Z,0
2018-05-23T02:11:24.082Z,0
2018-05-23T02:12:32.977Z,0
2018-05-23T02:13:42.421Z,0
2018-05-23T02:14:51.866Z,0
2018-05-23T02:16:00.797Z,0
2018-05-23T02:17:09.979Z,0
2018-05-23T02:18:19.399Z,0
2018-05-23T02:19:29.107Z,0
2018-05-23T02:20:38.030Z,0
2018-05-23T02:21:47.705Z,0
2018-05-23T02:22:56.871Z,0
2018-05-23T02:24:06.566Z,0
2018-05-23T02:25:15.990Z,0
2018-05-23T02:26:25.424Z,0
2018-05-23T02:27:34.621Z,0
2018-05-23T02:28:43.523Z,0
2018-05-23T02:29:52.675Z,0
2018-05-23T02:31:02.111Z,0
2018-05-23T02:32:11.553Z,0
2018-05-23T02:33:21.264Z,0
2018-05-23T02:34:30.721Z,0
2018-05-23T02:35:40.143Z,0
2018-05-23T02:36:49.835Z,0
2018-05-23T02:37:59.777Z,0
2018-05-23T02:39:08.951Z,0
2018-05-23T02:40:18.666Z,0
2018-05-23T02:41:28.647Z,0
2018-05-23T02:42:38.069Z,0
2018-05-23T02:43:47.522Z,0
2018-05-23T02:44:56.721Z,0
2018-05-23T02:46:05.647Z,0
2018-05-23T02:47:16.043Z,0
2018-05-23T02:48:25.347Z,0
2018-05-23T02:49:34.787Z,0
2018-05-23T02:50:44.477Z,0
2018-05-23T02:51:53.910Z,0
2018-05-23T02:53:03.076Z,0
2018-05-23T02:54:12.756Z,0
2018-05-23T02:55:22.495Z,0
2018-05-23T02:56:31.946Z,0
2018-05-23T02:57:41.924Z,0
2018-05-23T02:58:51.618Z,0
2018-05-23T03:00:01.303Z,0
2018-05-23T03:01:10.785Z,0
2018-05-23T03:02:20.524Z,0
2018-05-23T03:03:29.983Z,0
2018-05-23T03:04:39.501Z,0
2018-05-23T03:05:49.186Z,0
2018-05-23T03:06:58.621Z,0
2018-05-23T03:08:08.063Z,0
2018-05-23T03:09:17.742Z,0
2018-05-23T03:10:27.412Z,0
2018-05-23T03:11:36.861Z,0
2018-05-23T03:12:46.021Z,0
2018-05-23T03:13:55.466Z,0
2018-05-23T03:15:04.885Z,0
2018-05-23T03:16:14.303Z,0
2018-05-23T03:17:23.449Z,0
2018-05-23T03:18:32.616Z,0
2018-05-23T03:19:41.768Z,0
2018-05-23T03:20:51.448Z,0
2018-05-23T03:22:00.946Z,0
2018-05-23T03:23:10.484Z,0
2018-05-23T03:24:19.385Z,0
2018-05-23T03:25:28.809Z,0
2018-05-23T03:26:38.229Z,0
2018-05-23T03:27:47.909Z,0
2018-05-23T03:28:56.805Z,0
2018-05-23T03:30:05.705Z,0
2018-05-23T03:31:14.872Z,0
2018-05-23T03:32:24.320Z,0
2018-05-23T03:33:33.751Z,0
2018-05-23T03:34:43.454Z,0
2018-05-23T03:35:52.866Z,0
2018-05-23T03:37:01.772Z,0
2018-05-23T03:38:10.681Z,0
2018-05-23T03:39:20.091Z,0
2018-05-23T03:40:29.300Z,0
2018-05-23T03:41:38.533Z,0
2018-05-23T03:42:48.152Z,0
2018-05-23T03:43:57.319Z,0
2018-05-23T03:45:06.243Z,0
2018-05-23T03:46:15.937Z,0
2018-05-23T03:47:25.429Z,0
2018-05-23T03:48:35.104Z,0
2018-05-23T03:49:44.020Z,0
2018-05-23T03:50:53.465Z,0
2018-05-23T03:52:02.652Z,0
2018-05-23T03:53:11.564Z,0
2018-05-23T03:54:20.998Z,0
2018-05-23T03:55:30.829Z,0
2018-05-23T03:56:40.035Z,0
2018-05-23T03:57:49.450Z,0
2018-05-23T03:58:59.365Z,0
2018-05-23T04:00:08.789Z,0
2018-05-23T04:01:18.482Z,0
2018-05-23T04:02:28.173Z,0
2018-05-23T04:03:37.335Z,0
2018-05-23T04:04:46.777Z,0
2018-05-23T04:05:56.804Z,0
2018-05-23T04:07:06.229Z,0
2018-05-23T04:08:15.396Z,0
2018-05-23T04:09:24.884Z,0
2018-05-23T04:10:34.641Z,0
2018-05-23T04:11:43.810Z,0
2018-05-23T04:12:52.995Z,0
2018-05-23T04:14:02.417Z,0
2018-05-23T04:15:11.588Z,0
2018-05-23T04:16:20.775Z,0
2018-05-23T04:17:29.934Z,0
2018-05-23T04:18:39.377Z,0
2018-05-23T04:19:49.037Z,0
2018-05-23T04:20:58.245Z,0
2018-05-23T04:22:07.678Z,0
2018-05-23T04:23:16.865Z,0
2018-05-23T04:24:25.768Z,0
2018-05-23T04:25:34.682Z,0
2018-05-23T04:26:43.848Z,0
2018-05-23T04:27:53.542Z,0
2018-05-23T04:29:03.236Z,0
2018-05-23T04:30:12.151Z,0
2018-05-23T04:31:21.353Z,0
2018-05-23T04:32:31.064Z,0
2018-05-23T04:33:40.497Z,0
2018-05-23T04:34:49.515Z,0
2018-05-23T04:35:59.458Z,0
2018-05-23T04:37:08.703Z,0
2018-05-23T04:38:17.865Z,0
2018-05-23T04:39:26.929Z,0
2018-05-23T04:40:36.221Z,0
2018-05-23T04:41:45.398Z,0
2018-05-23T04:42:55.086Z,0
2018-05-23T04:44:04.286Z,0
2018-05-23T04:45:13.734Z,0
2018-05-23T04:46:23.441Z,0
2018-05-23T04:47:32.976Z,0
2018-05-23T04:48:42.827Z,0
2018-05-23T04:49:52.367Z,0
2018-05-23T04:51:02.113Z,0
2018-05-23T04:52:11.037Z,0
2018-05-23T04:53:20.708Z,0
2018-05-23T04:54:30.404Z,4
2018-05-23T04:55:39.587Z,4
2018-05-23T04:56:49.014Z,4
2018-05-23T04:57:58.723Z,4
2018-05-23T04:59:08.152Z,4
2018-05-23T05:00:18.112Z,4
2018-05-23T05:01:27.297Z,4
2018-05-23T05:02:36.969Z,4
2018-05-23T05:03:46.431Z,4
2018-05-23T05:04:56.134Z,4
2018-05-23T05:06:05.321Z,4
2018-05-23T05:07:15.037Z,0
2018-05-23T05:08:23.982Z,0
2018-05-23T05:09:33.343Z,0
2018-05-23T05:10:42.042Z,0
2018-05-23T05:11:51.722Z,0
2018-05-23T05:13:01.412Z,0
2018-05-23T05:14:11.124Z,0
2018-05-23T05:15:20.577Z,0
2018-05-23T05:16:29.741Z,0
2018-05-23T05:17:39.417Z,0
2018-05-23T05:18:49.189Z,0
2018-05-23T05:19:59.201Z,0
2018-05-23T05:21:08.377Z,0
2018-05-23T05:22:17.816Z,0
2018-05-23T05:23:27.006Z,0
2018-05-23T05:24:36.254Z,0
2018-05-23T05:25:45.451Z,0
2018-05-23T05:26:55.154Z,0
2018-05-23T05:28:04.568Z,0
2018-05-23T05:29:13.524Z,0
2018-05-23T05:30:22.961Z,0
2018-05-23T05:31:32.659Z,0
2018-05-23T05:32:41.823Z,0
2018-05-23T05:33:50.733Z,0
2018-05-23T05:35:00.180Z,0
2018-05-23T05:36:09.382Z,0
2018-05-23T05:37:18.293Z,0
2018-05-23T05:38:27.206Z,0
2018-05-23T05:39:36.643Z,0
2018-05-23T05:40:46.086Z,0
2018-05-23T05:41:55.775Z,0
2018-05-23T05:43:04.927Z,4
2018-05-23T05:44:14.098Z,4
2018-05-23T05:45:23.551Z,4
2018-05-23T05:46:33.267Z,4
2018-05-23T05:47:42.202Z,4
2018-05-23T05:48:51.630Z,4
2018-05-23T05:50:00.560Z,4
2018-05-23T05:51:09.991Z,0
2018-05-23T05:52:19.171Z,0
2018-05-23T05:53:28.907Z,0
2018-05-23T05:54:38.604Z,4
2018-05-23T05:55:48.294Z,4
2018-05-23T05:56:58.239Z,4
2018-05-23T05:58:07.444Z,4
2018-05-23T05:59:16.945Z,4
2018-05-23T06:00:26.393Z,4
2018-05-23T06:01:36.104Z,4
2018-05-23T06:02:45.818Z,4
2018-05-23T06:03:55.251Z,4
2018-05-23T06:05:04.424Z,4
2018-05-23T06:06:13.329Z,4
2018-05-23T06:07:23.309Z,4
2018-05-23T06:08:32.737Z,4
2018-05-23T06:09:42.346Z,4
2018-05-23T06:10:51.559Z,4
2018-05-23T06:12:00.754Z,4
2018-05-23T06:13:09.690Z,4
2018-05-23T06:14:18.908Z,4
2018-05-23T06:15:28.611Z,4
2018-05-23T06:16:38.062Z,4
2018-05-23T06:17:47.797Z,4
2018-05-23T06:18:56.989Z,8
2018-05-23T06:20:06.174Z,8
2018-05-23T06:21:15.583Z,8
2018-05-23T06:22:25.242Z,8
2018-05-23T06:23:34.800Z,8
2018-05-23T06:24:43.992Z,8
2018-05-23T06:25:53.444Z,8
2018-05-23T06:27:02.865Z,8
2018-05-23T06:28:12.308Z,8
2018-05-23T06:29:21.490Z,4
2018-05-23T06:30:31.557Z,4
2018-05-23T06:31:41.292Z,4
2018-05-23T06:32:50.754Z,4
2018-05-23T06:34:00.417Z,4
2018-05-23T06:35:09.842Z,4
2018-05-23T06:36:19.358Z,4
2018-05-23T06:37:29.328Z,4
2018-05-23T06:38:38.770Z,4
2018-05-23T06:39:48.758Z,4
2018-05-23T06:40:58.476Z,4
2018-05-23T06:42:07.669Z,4
2018-05-23T06:43:16.890Z,4
2018-05-23T06:44:26.325Z,8
2018-05-23T06:45:35.516Z,8
2018-05-23T06:46:45.476Z,8
2018-05-23T06:47:55.172Z,8
2018-05-23T06:49:04.090Z,8
2018-05-23T06:50:13.686Z,8
2018-05-23T06:51:23.107Z,4
2018-05-23T06:52:32.263Z,4
2018-05-23T06:53:41.188Z,4
2018-05-23T06:54:50.370Z,4
2018-05-23T06:55:59.559Z,8
2018-05-23T06:57:08.998Z,8
2018-05-23T06:58:18.448Z,8
2018-05-23T06:59:27.120Z,8
2018-05-23T07:00:36.798Z,8
2018-05-23T07:01:45.973Z,8
2018-05-23T07:02:54.907Z,8
2018-05-23T07:04:04.628Z,8
2018-05-23T07:05:14.093Z,8
2018-05-23T07:06:23.016Z,8
2018-05-23T07:07:32.419Z,8
2018-05-23T07:08:41.599Z,8
2018-05-23T07:09:51.022Z,8
2018-05-23T07:11:00.295Z,8
2018-05-23T07:12:09.466Z,8
2018-05-23T07:13:18.660Z,8
2018-05-23T07:14:27.588Z,12
2018-05-23T07:15:36.507Z,12
2018-05-23T07:16:45.751Z,8
2018-05-23T07:17:55.391Z,8
2018-05-23T07:19:05.087Z,8
2018-05-23T07:20:14.512Z,12
2018-05-23T07:21:24.446Z,8
2018-05-23T07:22:33.893Z,8
2018-05-23T07:23:43.389Z,12
2018-05-23T07:24:52.819Z,12
2018-05-23T07:26:01.472Z,12
2018-05-23T07:27:10.647Z,12
2018-05-23T07:28:20.322Z,12
2018-05-23T07:29:29.826Z,12
2018-05-23T07:30:39.389Z,12
2018-05-23T07:31:49.343Z,16
2018-05-23T07:32:58.966Z,12
2018-05-23T07:34:07.659Z,16
2018-05-23T07:35:17.124Z,16
2018-05-23T07:36:26.590Z,16
2018-05-23T07:37:35.531Z,16
2018-05-23T07:38:45.083Z,12
2018-05-23T07:39:54.042Z,16
2018-05-23T07:41:03.493Z,20
2018-05-23T07:42:12.981Z,16
2018-05-23T07:43:22.470Z,20
2018-05-23T07:44:31.661Z,20
2018-05-23T07:45:41.428Z,24
2018-05-23T07:46:51.141Z,24
2018-05-23T07:48:00.612Z,24
2018-05-23T07:49:10.074Z,20
2018-05-23T07:50:19.504Z,20
2018-05-23T07:51:28.953Z,20
2018-05-23T07:52:38.411Z,24
2018-05-23T07:53:47.385Z,16
2018-05-23T07:54:56.859Z,16
2018-05-23T07:56:05.840Z,16
2018-05-23T07:57:15.332Z,16
2018-05-23T07:58:24.824Z,20
2018-05-23T07:59:34.008Z,16
2018-05-23T08:00:42.983Z,20
2018-05-23T08:01:51.917Z,16
2018-05-23T08:03:01.380Z,16
2018-05-23T08:04:10.344Z,16
2018-05-23T08:05:20.081Z,16
2018-05-23T08:06:29.268Z,16
2018-05-23T08:07:38.194Z,20
2018-05-23T08:08:47.120Z,24
2018-05-23T08:09:56.580Z,20
2018-05-23T08:11:06.048Z,16
2018-05-23T08:12:15.292Z,20
2018-05-23T08:13:24.994Z,28
2018-05-23T08:14:34.169Z,24
2018-05-23T08:15:43.372Z,24
2018-05-23T08:16:52.533Z,24
2018-05-23T08:18:02.233Z,20
2018-05-23T08:19:11.163Z,16
2018-05-23T08:20:20.928Z,20
2018-05-23T08:21:30.646Z,20
2018-05-23T08:22:40.080Z,20
2018-05-23T08:23:48.996Z,28
2018-05-23T08:24:58.688Z,32
2018-05-23T08:26:08.397Z,28
2018-05-23T08:27:17.839Z,40
2018-05-23T08:28:27.280Z,32
2018-05-23T08:29:36.731Z,32
2018-05-23T08:30:46.193Z,40
2018-05-23T08:31:55.862Z,36
2018-05-23T08:33:04.809Z,36
2018-05-23T08:34:13.982Z,36
2018-05-23T08:35:23.402Z,32
2018-05-23T08:36:33.299Z,36
2018-05-23T08:37:42.466Z,36
2018-05-23T08:38:51.676Z,36
2018-05-23T08:40:01.414Z,24
2018-05-23T08:41:10.601Z,16
2018-05-23T08:42:19.763Z,16
2018-05-23T08:43:29.458Z,16
2018-05-23T08:44:38.909Z,16
2018-05-23T08:45:48.598Z,20
2018-05-23T08:46:58.026Z,28
2018-05-23T08:48:07.189Z,16
2018-05-23T08:49:16.105Z,20
2018-05-23T08:50:25.780Z,20
2018-05-23T08:51:35.270Z,28
2018-05-23T08:52:44.758Z,16
2018-05-23T08:53:54.204Z,16
2018-05-23T08:55:03.407Z,16
2018-05-23T08:56:12.952Z,16
2018-05-23T08:57:22.281Z,24
2018-05-23T08:58:31.452Z,24
2018-05-23T08:59:40.635Z,20
2018-05-23T09:00:50.381Z,24
2018-05-23T09:01:59.796Z,20
2018-05-23T09:03:08.727Z,20
2018-05-23T09:04:18.156Z,16
2018-05-23T09:05:27.607Z,20
2018-05-23T09:06:36.790Z,20
2018-05-23T09:07:45.993Z,20
2018-05-23T09:08:55.681Z,16
2018-05-23T09:10:05.373Z,20
2018-05-23T09:11:15.317Z,20
2018-05-23T09:12:24.939Z,16
2018-05-23T09:13:34.502Z,16
2018-05-23T09:14:43.955Z,12
2018-05-23T09:15:52.644Z,12
2018-05-23T09:17:01.556Z,12
2018-05-23T09:18:10.982Z,12
2018-05-23T09:19:19.903Z,12
2018-05-23T09:20:29.616Z,12
2018-05-23T09:21:39.040Z,12
2018-05-23T09:22:48.749Z,12
2018-05-23T09:23:57.938Z,12
2018-05-23T09:25:07.117Z,12
2018-05-23T09:26:16.821Z,16
2018-05-23T09:27:26.324Z,16
2018-05-23T09:28:35.507Z,16
2018-05-23T09:29:44.433Z,12
2018-05-23T09:30:54.200Z,12
2018-05-23T09:32:03.635Z,16
2018-05-23T09:33:13.413Z,16
2018-05-23T09:34:22.584Z,16
2018-05-23T09:35:32.050Z,16
2018-05-23T09:36:40.971Z,16
2018-05-23T09:37:49.907Z,20
2018-05-23T09:38:59.603Z,20
2018-05-23T09:40:09.046Z,24
2018-05-23T09:41:17.992Z,32
2018-05-23T09:42:27.446Z,36
2018-05-23T09:43:36.378Z,36
2018-05-23T09:44:45.578Z,32
2018-05-23T09:45:55.025Z,28
2018-05-23T09:47:03.958Z,28
2018-05-23T09:48:13.436Z,32
2018-05-23T09:49:22.594Z,28
2018-05-23T09:50:32.044Z,28
2018-05-23T09:51:41.495Z,28
2018-05-23T09:52:51.229Z,32
2018-05-23T09:54:00.694Z,32
2018-05-23T09:55:10.523Z,32
2018-05-23T09:56:19.955Z,28
2018-05-23T09:57:29.891Z,28
2018-05-23T09:58:39.611Z,36
2018-05-23T09:59:49.062Z,32
2018-05-23T10:00:58.510Z,32
2018-05-23T10:02:07.684Z,28
2018-05-23T10:03:16.894Z,20
2018-05-23T10:04:26.352Z,20
2018-05-23T10:05:36.062Z,16
2018-05-23T10:06:45.239Z,16
2018-05-23T10:07:54.683Z,12
2018-05-23T10:09:03.375Z,12
2018-05-23T10:10:12.574Z,16
2018-05-23T10:11:21.502Z,12
2018-05-23T10:12:30.950Z,12
2018-05-23T10:13:40.922Z,8
2018-05-23T10:14:50.105Z,12
2018-05-23T10:15:59.286Z,8
2018-05-23T10:17:08.512Z,12
2018-05-23T10:18:17.956Z,8
2018-05-23T10:19:27.119Z,8
2018-05-23T10:20:37.512Z,8
2018-05-23T10:21:46.444Z,8
2018-05-23T10:22:56.155Z,4
2018-05-23T10:24:05.884Z,4
2018-05-23T10:25:15.093Z,8
2018-05-23T10:26:24.928Z,8
2018-05-23T10:27:35.205Z,8
2018-05-23T10:28:44.959Z,8
2018-05-23T10:29:55.019Z,8
2018-05-23T10:31:04.445Z,12
2018-05-23T10:32:13.370Z,8
2018-05-23T10:33:23.214Z,12
2018-05-23T10:34:32.417Z,12
2018-05-23T10:35:41.903Z,12
2018-05-23T10:36:51.582Z,12
2018-05-23T10:38:01.336Z,12
2018-05-23T10:39:11.695Z,12
2018-05-23T10:40:21.410Z,12
2018-05-23T10:41:31.122Z,12
2018-05-23T10:42:40.577Z,8
2018-05-23T10:43:50.053Z,8
2018-05-23T10:44:59.198Z,8
2018-05-23T10:46:08.436Z,8
2018-05-23T10:47:18.135Z,8
2018-05-23T10:48:27.309Z,12
2018-05-23T10:49:36.771Z,12
2018-05-23T10:50:46.178Z,12
2018-05-23T10:51:55.986Z,12
2018-05-23T10:53:05.708Z,12
2018-05-23T10:54:14.908Z,12
2018-05-23T10:55:24.358Z,12
2018-05-23T10:56:33.844Z,12
2018-05-23T10:57:43.332Z,12
2018-05-23T10:58:52.780Z,8
2018-05-23T11:00:02.226Z,12
2018-05-23T11:01:11.409Z,12
2018-05-23T11:02:21.537Z,12
2018-05-23T11:03:30.743Z,12
2018-05-23T11:04:39.939Z,12
2018-05-23T11:05:49.777Z,12
2018-05-23T11:06:59.422Z,12
2018-05-23T11:08:08.862Z,12
2018-05-23T11:09:18.300Z,12
2018-05-23T11:10:27.499Z,12
2018-05-23T11:11:36.962Z,12
2018-05-23T11:12:46.695Z,12
2018-05-23T11:13:55.685Z,12
2018-05-23T11:15:05.467Z,12
2018-05-23T11:16:14.840Z,12
2018-05-23T11:17:24.592Z,12
2018-05-23T11:18:33.848Z,16
2018-05-23T11:19:43.595Z,16
2018-05-23T11:20:53.125Z,16
2018-05-23T11:22:02.170Z,16
2018-05-23T11:23:11.674Z,20
2018-05-23T11:24:21.456Z,20
2018-05-23T11:25:30.951Z,16
2018-05-23T11:26:40.734Z,16
2018-05-23T11:27:49.697Z,16
2018-05-23T11:28:58.962Z,16
2018-05-23T11:30:08.166Z,16
2018-05-23T11:31:17.100Z,16
2018-05-23T11:32:27.089Z,16
2018-05-23T11:33:36.057Z,16
2018-05-23T11:34:45.829Z,16
2018-05-23T11:35:55.592Z,16
2018-05-23T11:37:05.092Z,16
2018-05-23T11:38:15.144Z,16
2018-05-23T11:39:24.378Z,16
2018-05-23T11:40:33.602Z,20
2018-05-23T11:41:42.576Z,16
2018-05-23T11:42:51.844Z,20
2018-05-23T11:44:01.892Z,20
2018-05-23T11:45:11.686Z,16
2018-05-23T11:46:21.425Z,20
2018-05-23T11:47:30.973Z,20
2018-05-23T11:48:40.483Z,20
2018-05-23T11:49:49.742Z,16
2018-05-23T11:50:59.744Z,20
2018-05-23T11:52:09.042Z,20
2018-05-23T11:53:18.310Z,20
2018-05-23T11:54:27.256Z,20
2018-05-23T11:55:36.202Z,20
2018-05-23T11:56:45.384Z,20
2018-05-23T11:57:55.121Z,20
2018-05-23T11:59:05.109Z,20
2018-05-23T12:00:14.117Z,20
2018-05-23T12:01:23.392Z,24
2018-05-23T12:02:33.151Z,20
2018-05-23T12:03:42.398Z,20
2018-05-23T12:04:51.875Z,20
2018-05-23T12:06:01.325Z,16
2018-05-23T12:07:10.546Z,20
2018-05-23T12:08:19.995Z,16
2018-05-23T12:09:29.175Z,16
2018-05-23T12:10:39.153Z,16
2018-05-23T12:11:48.201Z,16
2018-05-23T12:12:57.436Z,16
2018-05-23T12:14:06.616Z,16
2018-05-23T12:15:16.026Z,16
2018-05-23T12:16:25.234Z,16
2018-05-23T12:17:34.456Z,16
2018-05-23T12:18:43.897Z,12
2018-05-23T12:19:53.085Z,12
2018-05-23T12:21:02.810Z,12
2018-05-23T12:22:12.532Z,12
2018-05-23T12:23:21.469Z,12
2018-05-23T12:24:31.223Z,12
2018-05-23T12:25:40.705Z,12
2018-05-23T12:26:49.649Z,12
2018-05-23T12:27:59.105Z,16
2018-05-23T12:29:08.606Z,16
2018-05-23T12:30:17.806Z,16
2018-05-23T12:31:26.975Z,16
2018-05-23T12:32:36.174Z,20
2018-05-23T12:33:45.862Z,20
2018-05-23T12:34:55.830Z,16
2018-05-23T12:36:05.034Z,16
2018-05-23T12:37:13.737Z,20
2018-05-23T12:38:23.227Z,24
2018-05-23T12:39:32.417Z,24
2018-05-23T12:40:42.114Z,24
2018-05-23T12:41:51.588Z,24
2018-05-23T12:43:01.281Z,24
2018-05-23T12:44:10.963Z,20
2018-05-23T12:45:20.163Z,24
2018-05-23T12:46:29.386Z,24
2018-05-23T12:47:38.862Z,24
2018-05-23T12:48:48.331Z,20
2018-05-23T12:49:57.521Z,20
2018-05-23T12:51:07.017Z,16
2018-05-23T12:52:16.536Z,16
2018-05-23T12:53:26.253Z,16
2018-05-23T12:54:36.234Z,16
2018-05-23T12:55:46.026Z,16
2018-05-23T12:56:55.244Z,16
2018-05-23T12:58:04.469Z,16
2018-05-23T12:59:13.935Z,16
2018-05-23T13:00:22.896Z,12
2018-05-23T13:01:31.849Z,16
2018-05-23T13:02:41.092Z,12
2018-05-23T13:03:50.604Z,12
2018-05-23T13:05:00.421Z,16
2018-05-23T13:06:10.219Z,12
2018-05-23T13:07:19.736Z,12
2018-05-23T13:08:29.201Z,12
2018-05-23T13:09:38.960Z,12
2018-05-23T13:10:48.483Z,12
2018-05-23T13:11:57.950Z,12
2018-05-23T13:13:07.179Z,12
2018-05-23T13:14:16.632Z,12
2018-05-23T13:15:26.350Z,12
2018-05-23T13:16:36.045Z,12
2018-05-23T13:17:45.535Z,16
2018-05-23T13:18:55.516Z,12
2018-05-23T13:20:04.482Z,12
2018-05-23T13:21:14.479Z,12
2018-05-23T13:22:23.719Z,16
2018-05-23T13:23:33.147Z,16
2018-05-23T13:24:42.335Z,16
2018-05-23T13:25:51.955Z,16
2018-05-23T13:27:01.432Z,16
2018-05-23T13:28:10.668Z,12
2018-05-23T13:29:20.750Z,12
2018-05-23T13:30:29.996Z,12
2018-05-23T13:31:38.943Z,16
2018-05-23T13:32:48.674Z,16
2018-05-23T13:33:58.230Z,12
2018-05-23T13:35:07.834Z,12
2018-05-23T13:36:17.325Z,12
2018-05-23T13:37:26.500Z,16
2018-05-23T13:38:35.715Z,16
2018-05-23T13:39:44.886Z,16
2018-05-23T13:40:54.848Z,16
2018-05-23T13:42:04.099Z,16
2018-05-23T13:43:13.288Z,20
2018-05-23T13:44:23.052Z,20
2018-05-23T13:45:32.314Z,20
2018-05-23T13:46:41.365Z,16
2018-05-23T13:47:50.876Z,16
2018-05-23T13:49:00.117Z,16
2018-05-23T13:50:09.295Z,16
2018-05-23T13:51:18.237Z,16
2018-05-23T13:52:27.413Z,16
2018-05-23T13:53:36.596Z,16
2018-05-23T13:54:46.050Z,20
2018-05-23T13:55:55.537Z,16
2018-05-23T13:57:04.374Z,16
2018-05-23T13:58:13.615Z,20
2018-05-23T13:59:23.080Z,20
2018-05-23T14:00:32.505Z,24
2018-05-23T14:01:41.734Z,24
2018-05-23T14:02:51.711Z,32
2018-05-23T14:04:01.404Z,24
2018-05-23T14:05:11.399Z,20
2018-05-23T14:06:20.617Z,28
2018-05-23T14:07:30.064Z,32
2018-05-23T14:08:39.532Z,24
2018-05-23T14:09:48.504Z,24
2018-05-23T14:10:57.939Z,20
2018-05-23T14:12:06.877Z,20
2018-05-23T14:13:16.316Z,24
2018-05-23T14:14:24.973Z,16
2018-05-23T14:15:34.213Z,16
2018-05-23T14:16:43.394Z,16
2018-05-23T14:17:52.832Z,16
2018-05-23T14:19:01.789Z,16
2018-05-23T14:20:11.331Z,12
2018-05-23T14:21:21.020Z,12
2018-05-23T14:22:30.454Z,12
2018-05-23T14:23:39.393Z,12
2018-05-23T14:24:49.365Z,12
2018-05-23T14:25:59.146Z,16
2018-05-23T14:27:08.668Z,16
2018-05-23T14:28:17.682Z,16
2018-05-23T14:29:27.176Z,16
2018-05-23T14:30:36.180Z,16
2018-05-23T14:31:45.666Z,16
2018-05-23T14:32:54.899Z,16
2018-05-23T14:34:04.366Z,16
2018-05-23T14:35:13.579Z,20
2018-05-23T14:36:23.304Z,20
2018-05-23T14:37:33.114Z,28
2018-05-23T14:38:42.900Z,24
2018-05-23T14:39:51.564Z,32
2018-05-23T14:41:01.092Z,24
2018-05-23T14:42:10.067Z,20
2018-05-23T14:43:19.280Z,28
2018-05-23T14:44:28.283Z,32
2018-05-23T14:45:37.745Z,32
2018-05-23T14:46:46.669Z,20
2018-05-23T14:47:55.887Z,16
2018-05-23T14:49:05.361Z,16
2018-05-23T14:50:15.218Z,16
2018-05-23T14:51:24.681Z,16
2018-05-23T14:52:34.186Z,32
2018-05-23T14:53:43.405Z,28
2018-05-23T14:54:52.894Z,24
2018-05-23T14:56:01.913Z,16
2018-05-23T14:57:11.389Z,24
2018-05-23T14:58:21.138Z,24
2018-05-23T14:59:30.331Z,32
2018-05-23T15:00:39.578Z,28
2018-05-23T15:01:49.346Z,28
2018-05-23T15:02:58.880Z,20
2018-05-23T15:04:08.388Z,24
2018-05-23T15:05:17.565Z,20
2018-05-23T15:06:26.803Z,16
2018-05-23T15:07:36.283Z,12
2018-05-23T15:08:45.889Z,20
2018-05-23T15:09:55.600Z,20
2018-05-23T15:11:04.874Z,16
2018-05-23T15:12:14.909Z,16
2018-05-23T15:13:24.659Z,20
2018-05-23T15:14:34.244Z,12
2018-05-23T15:15:43.478Z,12
2018-05-23T15:16:53.220Z,12
2018-05-23T15:18:02.145Z,8
2018-05-23T15:19:11.587Z,12
2018-05-23T15:20:21.282Z,12
2018-05-23T15:21:30.706Z,12
2018-05-23T15:22:40.399Z,12
2018-05-23T15:23:49.336Z,12
2018-05-23T15:24:58.583Z,8
2018-05-23T15:26:07.844Z,8
2018-05-23T15:27:17.851Z,8
2018-05-23T15:28:27.153Z,12
2018-05-23T15:29:36.352Z,12
2018-05-23T15:30:45.638Z,12
2018-05-23T15:31:55.129Z,12
2018-05-23T15:33:04.618Z,12
2018-05-23T15:34:13.891Z,8
2018-05-23T15:35:23.337Z,12
2018-05-23T15:36:33.178Z,12
2018-05-23T15:37:42.963Z,8
2018-05-23T15:38:52.145Z,12
2018-05-23T15:40:01.869Z,12
2018-05-23T15:41:11.332Z,12
2018-05-23T15:42:20.509Z,12
2018-05-23T15:43:30.248Z,12
2018-05-23T15:44:38.977Z,12
2018-05-23T15:45:48.456Z,12
2018-05-23T15:46:58.197Z,12
2018-05-23T15:48:07.693Z,12
2018-05-23T15:49:17.208Z,8
2018-05-23T15:50:26.684Z,8
2018-05-23T15:51:36.200Z,12
2018-05-23T15:52:45.185Z,12
2018-05-23T15:53:54.146Z,12
2018-05-23T15:55:03.901Z,12
2018-05-23T15:56:12.834Z,12
2018-05-23T15:57:22.316Z,12
2018-05-23T15:58:32.102Z,12
2018-05-23T15:59:41.266Z,8
2018-05-23T16:00:50.476Z,8
2018-05-23T16:01:59.660Z,8
2018-05-23T16:03:09.504Z,8
2018-05-23T16:04:18.665Z,12
2018-05-23T16:05:28.083Z,8
2018-05-23T16:06:37.524Z,8
2018-05-23T16:07:46.947Z,8
2018-05-23T16:08:56.415Z,8
2018-05-23T16:10:06.368Z,8
2018-05-23T16:11:16.055Z,8
2018-05-23T16:12:25.743Z,8
2018-05-23T16:13:35.690Z,8
2018-05-23T16:14:45.215Z,8
2018-05-23T16:15:54.964Z,8
2018-05-23T16:17:04.451Z,8
2018-05-23T16:18:13.928Z,8
2018-05-23T16:19:23.665Z,8
2018-05-23T16:20:33.792Z,8
2018-05-23T16:21:43.006Z,8
2018-05-23T16:22:52.510Z,8
2018-05-23T16:24:01.991Z,8
2018-05-23T16:25:10.975Z,8
2018-05-23T16:26:20.947Z,8
2018-05-23T16:27:30.133Z,4
2018-05-23T16:28:39.365Z,8
2018-05-23T16:29:48.867Z,8
2018-05-23T16:30:58.606Z,8
2018-05-23T16:32:08.137Z,8
2018-05-23T16:33:17.915Z,8
2018-05-23T16:34:27.367Z,8
2018-05-23T16:35:36.809Z,8
2018-05-23T16:36:46.588Z,4
2018-05-23T16:37:56.314Z,4
2018-05-23T16:39:05.862Z,4
2018-05-23T16:40:15.317Z,4
2018-05-23T16:41:24.579Z,4
2018-05-23T16:42:33.784Z,4
2018-05-23T16:43:43.250Z,4
2018-05-23T16:44:52.789Z,4
2018-05-23T16:46:01.952Z,4
2018-05-23T16:47:11.964Z,4
2018-05-23T16:48:21.441Z,4